createdAt,value
2018-12-25T00:00:20.946Z,91.70
2018-12-25T00:02:52.758Z,91.90
2018-12-25T00:05:23.175Z,91.60
2018-12-25T00:07:53.367Z,91.70
2018-12-25T00:10:23.670Z,91.40
2018-12-25T00:12:53.874Z,91.60
2018-12-25T00:15:24.151Z,91.30
2018-12-25T00:17:54.383Z,91.10
2018-12-25T00:20:24.594Z,91.40
2018-12-25T00:22:54.962Z,91.60
2018-12-25T00:25:25.243Z,91.30
2018-12-25T00:27:55.522Z,91.20
2018-12-25T00:30:25.707Z,90.90
2018-12-25T00:32:55.903Z,91.10
2018-12-25T00:35:26.104Z,91.10
2018-12-25T00:37:56.507Z,91.00
2018-12-25T00:40:26.738Z,90.80
2018-12-25T00:42:57.074Z,91.00
2018-12-25T00:45:27.344Z,91.50
2018-12-25T00:47:57.552Z,91.00
2018-12-25T00:50:27.850Z,90.90
2018-12-25T00:52:58.010Z,91.00
2018-12-25T00:55:28.320Z,90.90
2018-12-25T00:57:58.544Z,90.90
2018-12-25T01:00:28.801Z,90.50
2018-12-25T01:02:59.014Z,90.40
2018-12-25T01:05:29.190Z,90.60
2018-12-25T01:07:59.469Z,90.90
2018-12-25T01:10:29.729Z,90.80
2018-12-25T01:13:00.095Z,90.90
2018-12-25T01:15:30.273Z,90.90
2018-12-25T01:18:00.612Z,91.00
2018-12-25T01:20:30.851Z,91.20
2018-12-25T01:23:01.179Z,91.00
2018-12-25T01:25:31.458Z,90.90
2018-12-25T01:28:02.118Z,91.30
2018-12-25T01:30:32.277Z,91.00
2018-12-25T01:33:02.633Z,91.00
2018-12-25T01:35:32.831Z,90.90
2018-12-25T01:38:03.128Z,90.90
2018-12-25T01:40:33.381Z,90.90
2018-12-25T01:43:03.821Z,91.00
2018-12-25T01:45:34.033Z,90.80
2018-12-25T01:48:04.185Z,90.60
2018-12-25T01:50:34.386Z,90.70
2018-12-25T01:53:04.698Z,90.60
2018-12-25T01:55:35.061Z,90.50
2018-12-25T01:58:05.286Z,90.80
2018-12-25T02:00:36.670Z,90.80
2018-12-25T02:03:06.961Z,90.80
2018-12-25T02:05:37.194Z,90.70
2018-12-25T02:08:07.570Z,91.10
2018-12-25T02:10:37.880Z,90.90
2018-12-25T02:13:08.059Z,91.00
2018-12-25T02:15:38.357Z,90.80
2018-12-25T02:18:08.573Z,90.70
2018-12-25T02:20:38.717Z,90.70
2018-12-25T02:23:09.047Z,90.90
2018-12-25T02:25:39.436Z,91.20
2018-12-25T02:28:09.694Z,90.90
2018-12-25T02:30:40.013Z,91.30
2018-12-25T02:33:10.217Z,91.30
2018-12-25T02:35:40.695Z,91.40
2018-12-25T02:38:10.935Z,91.50
2018-12-25T02:40:41.208Z,91.60
2018-12-25T02:43:11.451Z,91.90
2018-12-25T02:45:41.796Z,91.90
2018-12-25T02:48:12.015Z,92.10
2018-12-25T02:50:42.278Z,92.20
2018-12-25T02:53:12.602Z,92.40
2018-12-25T02:55:42.754Z,92.30
2018-12-25T02:58:13.052Z,92.30
2018-12-25T03:00:43.278Z,92.80
2018-12-25T03:03:13.634Z,92.80
2018-12-25T03:05:43.893Z,92.80
2018-12-25T03:08:14.183Z,93.00
2018-12-25T03:10:44.382Z,93.10
2018-12-25T03:13:14.623Z,93.00
2018-12-25T03:15:44.878Z,93.30
2018-12-25T03:18:15.086Z,93.20
2018-12-25T03:20:45.269Z,93.60
2018-12-25T03:23:15.521Z,93.40
2018-12-25T03:25:45.727Z,93.60
2018-12-25T03:28:15.955Z,93.70
2018-12-25T03:30:46.121Z,93.50
2018-12-25T03:33:16.375Z,93.70
2018-12-25T03:35:46.576Z,93.70
2018-12-25T03:38:16.730Z,93.90
2018-12-25T03:40:47.013Z,94.00
2018-12-25T03:43:17.226Z,94.00
2018-12-25T03:45:47.443Z,94.20
2018-12-25T03:48:17.679Z,94.30
2018-12-25T03:50:47.916Z,94.10
2018-12-25T03:53:18.235Z,94.30
2018-12-25T03:55:48.406Z,94.50
2018-12-25T03:58:18.556Z,94.50
2018-12-25T04:00:48.754Z,94.70
2018-12-25T04:03:18.959Z,94.70
2018-12-25T04:05:49.199Z,95.20
2018-12-25T04:08:19.372Z,95.00
2018-12-25T04:10:49.644Z,94.80
2018-12-25T04:13:19.873Z,94.80
2018-12-25T04:15:50.115Z,95.10
2018-12-25T04:18:20.386Z,95.30
2018-12-25T04:20:50.525Z,95.20
2018-12-25T04:23:20.752Z,95.40
2018-12-25T04:25:51.011Z,95.40
2018-12-25T04:28:21.190Z,95.70
2018-12-25T04:30:51.574Z,95.90
2018-12-25T04:33:21.815Z,95.50
2018-12-25T04:35:52.082Z,95.70
2018-12-25T04:38:22.228Z,95.60
2018-12-25T04:40:52.374Z,95.70
2018-12-25T04:43:22.520Z,95.60
2018-12-25T04:45:52.685Z,95.70
2018-12-25T04:48:22.911Z,95.50
2018-12-25T04:50:53.123Z,95.70
2018-12-25T04:53:23.440Z,95.70
2018-12-25T04:55:53.714Z,95.60
2018-12-25T04:58:23.877Z,95.50
2018-12-25T05:00:54.101Z,95.50
2018-12-25T05:03:24.321Z,95.50
2018-12-25T05:05:54.517Z,95.60
2018-12-25T05:08:24.694Z,95.80
2018-12-25T05:10:54.952Z,95.50
2018-12-25T05:13:25.245Z,95.50
2018-12-25T05:15:55.402Z,95.50
2018-12-25T05:18:25.606Z,95.70
2018-12-25T05:20:55.788Z,95.60
2018-12-25T05:23:26.149Z,95.60
2018-12-25T05:25:56.384Z,95.80
2018-12-25T05:28:26.668Z,95.90
2018-12-25T05:30:56.895Z,95.90
2018-12-25T05:33:27.086Z,96.00
2018-12-25T05:35:57.300Z,96.00
2018-12-25T05:38:27.632Z,95.90
2018-12-25T05:40:57.855Z,96.40
2018-12-25T05:43:28.062Z,96.20
2018-12-25T05:45:58.215Z,96.20
2018-12-25T05:48:28.425Z,96.30
2018-12-25T05:50:58.592Z,96.20
2018-12-25T05:53:28.809Z,96.30
2018-12-25T05:55:59.169Z,96.20
2018-12-25T05:58:29.351Z,96.10
2018-12-25T06:01:00.683Z,96.30
2018-12-25T06:03:30.946Z,96.10
2018-12-25T06:06:01.122Z,96.30
2018-12-25T06:08:31.276Z,96.40
2018-12-25T06:11:01.441Z,96.30
2018-12-25T06:13:31.654Z,96.40
2018-12-25T06:16:01.882Z,96.30
2018-12-25T06:18:32.172Z,96.40
2018-12-25T06:21:02.405Z,96.50
2018-12-25T06:23:32.777Z,96.50
2018-12-25T06:26:03.013Z,96.50
2018-12-25T06:28:33.178Z,96.50
2018-12-25T06:31:03.605Z,96.60
2018-12-25T06:33:33.789Z,96.60
2018-12-25T06:36:03.982Z,96.60
2018-12-25T06:38:34.288Z,96.70
2018-12-25T06:41:04.576Z,97.20
2018-12-25T06:43:34.818Z,97.00
2018-12-25T06:46:05.140Z,97.00
2018-12-25T06:48:35.449Z,97.20
2018-12-25T06:51:05.611Z,97.20
2018-12-25T06:53:35.925Z,97.30
2018-12-25T06:56:06.122Z,97.30
2018-12-25T06:58:36.398Z,97.30
2018-12-25T07:01:06.615Z,97.40
2018-12-25T07:03:36.883Z,97.50
2018-12-25T07:06:07.151Z,97.60
2018-12-25T07:08:37.338Z,97.60
2018-12-25T07:11:07.501Z,97.60
2018-12-25T07:13:37.770Z,97.80
2018-12-25T07:16:08.071Z,97.70
2018-12-25T07:18:38.325Z,97.90
2018-12-25T07:21:12.212Z,97.90
2018-12-25T07:23:40.588Z,98.00
2018-12-25T07:26:10.882Z,98.10
2018-12-25T07:28:41.113Z,98.50
2018-12-25T07:31:11.258Z,98.10
2018-12-25T07:33:41.446Z,98.20
2018-12-25T07:36:11.604Z,98.20
2018-12-25T07:38:41.805Z,98.20
2018-12-25T07:41:12.035Z,98.00
2018-12-25T07:43:42.376Z,98.10
2018-12-25T07:46:12.646Z,98.10
2018-12-25T07:48:42.853Z,98.20
2018-12-25T07:51:20.535Z,98.20
2018-12-25T07:53:44.957Z,98.20
2018-12-25T07:56:15.263Z,98.00
2018-12-25T07:58:45.430Z,98.10
2018-12-25T08:01:15.670Z,98.10
2018-12-25T08:03:45.831Z,98.10
2018-12-25T08:06:16.022Z,98.00
2018-12-25T08:08:46.186Z,98.10
2018-12-25T08:11:16.340Z,98.10
2018-12-25T08:13:46.584Z,98.00
2018-12-25T08:16:16.818Z,97.90
2018-12-25T08:18:47.074Z,97.90
2018-12-25T08:21:17.230Z,97.80
2018-12-25T08:23:47.451Z,97.70
2018-12-25T08:26:17.621Z,97.70
2018-12-25T08:28:47.798Z,97.60
2018-12-25T08:31:18.002Z,97.60
2018-12-25T08:33:48.190Z,97.60
2018-12-25T08:36:18.389Z,97.50
2018-12-25T08:38:48.614Z,97.60
2018-12-25T08:41:18.753Z,97.60
2018-12-25T08:43:49.026Z,97.70
2018-12-25T08:46:19.242Z,97.60
2018-12-25T08:48:49.449Z,97.60
2018-12-25T08:51:19.710Z,97.50
2018-12-25T08:53:49.933Z,97.40
2018-12-25T08:56:20.177Z,97.20
2018-12-25T08:58:50.418Z,97.30
2018-12-25T09:01:20.594Z,97.50
2018-12-25T09:03:50.779Z,97.30
2018-12-25T09:06:21.038Z,97.40
2018-12-25T09:08:51.310Z,97.30
2018-12-25T09:11:21.457Z,97.40
2018-12-25T09:13:51.647Z,97.20
2018-12-25T09:16:21.882Z,97.20
2018-12-25T09:18:52.108Z,97.10
2018-12-25T09:21:22.318Z,97.00
2018-12-25T09:23:52.585Z,97.20
2018-12-25T09:26:22.780Z,97.10
2018-12-25T09:28:53.042Z,97.00
2018-12-25T09:31:23.209Z,97.00
2018-12-25T09:33:53.398Z,96.80
2018-12-25T09:36:23.615Z,96.80
2018-12-25T09:38:53.893Z,96.80
2018-12-25T09:41:24.230Z,96.70
2018-12-25T09:43:54.507Z,96.80
2018-12-25T09:46:24.781Z,96.70
2018-12-25T09:48:54.977Z,96.70
2018-12-25T09:51:25.266Z,96.70
2018-12-25T09:53:55.474Z,96.80
2018-12-25T09:56:25.780Z,96.70
2018-12-25T09:58:56.021Z,96.60
2018-12-25T10:01:26.183Z,96.80
2018-12-25T10:03:56.380Z,96.60
2018-12-25T10:06:26.541Z,96.70
2018-12-25T10:08:56.769Z,96.50
2018-12-25T10:11:26.990Z,96.40
2018-12-25T10:13:57.313Z,96.20
2018-12-25T10:16:29.281Z,96.20
2018-12-25T10:18:59.609Z,96.40
2018-12-25T10:21:29.790Z,96.20
2018-12-25T10:24:00.146Z,96.30
2018-12-25T10:26:30.526Z,96.70
2018-12-25T10:29:00.673Z,96.40
2018-12-25T10:31:30.976Z,96.40
2018-12-25T10:34:01.302Z,96.50
2018-12-25T10:36:31.741Z,96.60
2018-12-25T10:39:02.171Z,96.60
2018-12-25T10:41:33.498Z,96.60
2018-12-25T10:44:03.744Z,96.60
2018-12-25T10:46:33.925Z,96.90
2018-12-25T10:49:04.251Z,97.00
2018-12-25T10:51:34.491Z,97.10
2018-12-25T10:54:04.726Z,97.00
2018-12-25T10:56:35.076Z,97.10
2018-12-25T10:59:05.390Z,97.10
2018-12-25T11:01:37.133Z,97.20
2018-12-25T11:04:07.297Z,97.50
2018-12-25T11:06:37.466Z,97.90
2018-12-25T11:09:07.714Z,98.10
2018-12-25T11:11:37.932Z,98.30
2018-12-25T11:14:08.092Z,98.40
2018-12-25T11:16:38.593Z,98.50
2018-12-25T11:19:08.811Z,98.70
2018-12-25T11:21:39.061Z,98.90
2018-12-25T11:24:09.321Z,99.10
2018-12-25T11:26:39.629Z,99.10
2018-12-25T11:29:09.806Z,99.00
2018-12-25T11:31:40.082Z,99.10
2018-12-25T11:34:10.237Z,98.90
2018-12-25T11:36:40.566Z,99.20
2018-12-25T11:39:10.854Z,99.30
2018-12-25T11:41:41.130Z,99.50
2018-12-25T11:44:11.362Z,99.30
2018-12-25T11:46:41.668Z,99.50
2018-12-25T11:49:13.330Z,99.50
2018-12-25T11:51:43.642Z,99.50
2018-12-25T11:54:13.939Z,99.50
2018-12-25T11:56:44.285Z,99.40
2018-12-25T11:59:14.578Z,99.60
2018-12-25T12:01:44.786Z,99.70
2018-12-25T12:04:15.002Z,99.80
2018-12-25T12:06:45.410Z,99.90
2018-12-25T12:09:15.678Z,99.80
2018-12-25T12:11:45.975Z,99.70
2018-12-25T12:14:16.138Z,99.80
2018-12-25T12:16:46.344Z,99.80
2018-12-25T12:19:16.697Z,99.80
2018-12-25T12:21:46.887Z,99.80
2018-12-25T12:24:17.363Z,99.80
2018-12-25T12:26:47.616Z,99.90
2018-12-25T12:29:17.977Z,99.90
2018-12-25T12:31:48.363Z,99.90
2018-12-25T12:34:18.604Z,99.90
2018-12-25T12:36:48.814Z,99.90
2018-12-25T12:39:19.186Z,99.90
2018-12-25T12:41:49.393Z,99.90
2018-12-25T12:44:19.583Z,99.90
2018-12-25T12:46:49.775Z,99.90
2018-12-25T12:49:20.071Z,99.90
2018-12-25T12:51:50.241Z,99.90
2018-12-25T12:54:20.447Z,99.90
2018-12-25T12:56:50.745Z,99.90
2018-12-25T12:59:21.303Z,99.90
2018-12-25T13:01:51.461Z,99.90
2018-12-25T13:04:21.703Z,99.90
2018-12-25T13:06:51.943Z,99.90
2018-12-25T13:09:22.100Z,99.90
2018-12-25T13:11:53.318Z,99.90
2018-12-25T13:14:23.676Z,99.90
2018-12-25T13:16:53.966Z,99.90
2018-12-25T13:19:24.189Z,99.90
2018-12-25T13:21:54.457Z,99.90
2018-12-25T13:24:24.708Z,99.90
2018-12-25T13:26:54.991Z,99.90
2018-12-25T13:29:25.213Z,99.90
2018-12-25T13:31:55.539Z,99.90
2018-12-25T13:34:25.771Z,99.90
2018-12-25T13:36:55.958Z,99.90
2018-12-25T13:39:26.198Z,99.90
2018-12-25T13:41:56.557Z,99.90
2018-12-25T13:44:26.874Z,99.90
2018-12-25T13:46:57.086Z,99.90
2018-12-25T13:49:27.377Z,99.90
2018-12-25T13:51:57.539Z,99.90
2018-12-25T13:54:27.856Z,99.90
2018-12-25T13:56:58.165Z,99.90
2018-12-25T13:59:28.430Z,99.90
2018-12-25T14:01:58.646Z,99.90
2018-12-25T14:04:28.847Z,99.90
2018-12-25T14:06:59.009Z,99.90
2018-12-25T14:09:29.243Z,99.90
2018-12-25T14:11:59.451Z,99.90
2018-12-25T14:14:29.661Z,99.90
2018-12-25T14:16:59.838Z,99.90
2018-12-25T14:19:29.990Z,99.90
2018-12-25T14:22:00.315Z,99.90
2018-12-25T14:24:30.553Z,99.90
2018-12-25T14:27:00.751Z,99.90
2018-12-25T14:29:30.941Z,99.90
2018-12-25T14:32:01.161Z,99.90
2018-12-25T14:34:31.352Z,99.90
2018-12-25T14:37:01.621Z,99.90
2018-12-25T14:39:31.890Z,99.90
2018-12-25T14:42:02.079Z,99.90
2018-12-25T14:44:32.235Z,99.90
2018-12-25T14:47:02.470Z,99.90
2018-12-25T14:49:32.634Z,99.90
2018-12-25T14:52:02.921Z,99.90
2018-12-25T14:54:33.091Z,99.90
2018-12-25T14:57:03.262Z,99.90
2018-12-25T14:59:33.479Z,99.90
2018-12-25T15:02:03.662Z,99.90
2018-12-25T15:04:33.834Z,99.90
2018-12-25T15:07:04.045Z,99.90
2018-12-25T15:09:34.227Z,99.90
2018-12-25T15:12:04.371Z,99.90
2018-12-25T15:14:34.557Z,99.90
2018-12-25T15:17:04.755Z,99.90
2018-12-25T15:19:34.955Z,99.90
2018-12-25T15:22:05.217Z,99.90
2018-12-25T15:24:35.374Z,99.90
2018-12-25T15:27:05.542Z,99.90
2018-12-25T15:29:35.854Z,99.90
2018-12-25T15:32:06.639Z,99.90
2018-12-25T15:34:39.207Z,99.90
2018-12-25T15:37:09.907Z,99.90
2018-12-25T15:39:40.260Z,99.90
2018-12-25T15:42:10.809Z,99.90
2018-12-25T15:44:41.517Z,99.90
2018-12-25T15:47:12.211Z,99.90
2018-12-25T15:49:42.831Z,99.90
2018-12-25T15:52:14.903Z,99.90
2018-12-25T15:54:45.600Z,99.90
2018-12-25T15:57:15.993Z,99.90
2018-12-25T15:59:46.313Z,99.90
2018-12-25T16:02:16.551Z,99.90
2018-12-25T16:04:46.769Z,99.90
2018-12-25T16:07:16.986Z,99.90
2018-12-25T16:09:47.193Z,99.90
2018-12-25T16:12:17.339Z,99.90
2018-12-25T16:14:47.537Z,99.90
2018-12-25T16:17:17.719Z,99.90
2018-12-25T16:19:47.953Z,99.90
2018-12-25T16:22:18.172Z,99.90
2018-12-25T16:24:48.352Z,99.90
2018-12-25T16:27:18.514Z,99.90
2018-12-25T16:29:48.756Z,99.90
2018-12-25T16:32:18.970Z,99.90
2018-12-25T16:34:49.244Z,99.90
2018-12-25T16:37:19.403Z,99.90
2018-12-25T16:39:49.610Z,99.90
2018-12-25T16:42:19.842Z,99.90
2018-12-25T16:44:50.036Z,99.90
2018-12-25T16:47:20.203Z,99.90
2018-12-25T16:49:50.378Z,99.90
2018-12-25T16:52:20.522Z,99.90
2018-12-25T16:54:50.695Z,99.90
2018-12-25T16:57:20.862Z,99.90
2018-12-25T16:59:51.061Z,99.90
2018-12-25T17:02:21.334Z,99.90
2018-12-25T17:04:51.574Z,99.90
2018-12-25T17:07:21.840Z,99.90
2018-12-25T17:09:52.020Z,99.90
2018-12-25T17:12:22.182Z,99.90
2018-12-25T17:14:52.393Z,99.90
2018-12-25T17:17:22.634Z,99.90
2018-12-25T17:19:52.836Z,99.90
2018-12-25T17:22:23.015Z,99.90
2018-12-25T17:24:53.483Z,99.90
2018-12-25T17:27:23.870Z,99.90
2018-12-25T17:29:54.070Z,99.90
2018-12-25T17:32:24.300Z,99.90
2018-12-25T17:34:54.526Z,99.90
2018-12-25T17:37:24.787Z,99.90
2018-12-25T17:39:54.954Z,99.90
2018-12-25T17:42:25.150Z,99.90
2018-12-25T17:44:55.343Z,99.90
2018-12-25T17:47:25.584Z,99.90
2018-12-25T17:49:55.814Z,99.90
2018-12-25T17:52:25.979Z,99.90
2018-12-25T17:54:56.229Z,99.90
2018-12-25T17:57:26.526Z,99.90
2018-12-25T17:59:56.956Z,99.90
2018-12-25T18:02:27.219Z,99.90
2018-12-25T18:04:57.423Z,99.90
2018-12-25T18:07:27.771Z,99.90
2018-12-25T18:09:58.021Z,99.90
2018-12-25T18:12:28.217Z,99.90
2018-12-25T18:14:58.386Z,99.90
2018-12-25T18:17:28.684Z,99.90
2018-12-25T18:19:58.881Z,99.90
2018-12-25T18:22:29.074Z,99.90
2018-12-25T18:24:59.243Z,99.90
2018-12-25T18:27:29.443Z,99.90
2018-12-25T18:29:59.806Z,99.90
2018-12-25T18:32:30.056Z,99.90
2018-12-25T18:35:00.356Z,99.90
2018-12-25T18:37:30.668Z,99.90
2018-12-25T18:40:00.985Z,99.90
2018-12-25T18:42:31.502Z,99.90
2018-12-25T18:45:03.876Z,99.90
2018-12-25T18:47:33.637Z,99.90
2018-12-25T18:50:03.954Z,99.90
2018-12-25T18:52:34.135Z,99.90
2018-12-25T18:55:04.329Z,99.90
2018-12-25T18:57:34.635Z,99.90
2018-12-25T19:00:05.789Z,99.90
2018-12-25T19:02:36.051Z,99.90
2018-12-25T19:05:06.480Z,99.90
2018-12-25T19:07:36.760Z,99.90
2018-12-25T19:10:09.017Z,99.90
2018-12-25T19:12:39.572Z,99.90
2018-12-25T19:15:22.439Z,99.90
2018-12-25T19:17:54.856Z,99.90
2018-12-25T19:20:25.509Z,99.90
2018-12-25T19:22:56.143Z,99.90
2018-12-25T19:25:26.737Z,99.90
2018-12-25T19:27:57.338Z,99.90
2018-12-25T19:30:31.335Z,99.90
2018-12-25T19:33:02.116Z,99.90
2018-12-25T19:35:33.151Z,99.90
2018-12-25T19:38:03.477Z,99.90
2018-12-25T19:40:33.683Z,99.90
2018-12-25T19:43:03.970Z,99.90
2018-12-25T19:45:34.750Z,99.90
2018-12-25T19:48:05.121Z,99.90
2018-12-25T19:50:35.358Z,99.90
2018-12-25T19:53:05.502Z,99.90
2018-12-25T19:55:35.658Z,99.90
2018-12-25T19:58:05.793Z,99.90
2018-12-25T20:00:35.985Z,99.90
2018-12-25T20:03:16.391Z,99.90
2018-12-25T20:06:12.900Z,99.90
2018-12-25T20:09:01.643Z,99.90
2018-12-25T20:12:22.638Z,99.90
2018-12-25T20:15:23.626Z,99.90
2018-12-25T20:18:36.128Z,99.90
2018-12-25T20:22:00.734Z,99.90
2018-12-25T20:25:02.086Z,99.90
2018-12-25T20:28:00.500Z,99.90
2018-12-25T20:31:06.556Z,99.90
2018-12-25T20:34:25.270Z,99.90
2018-12-25T20:37:50.406Z,99.90
2018-12-25T20:41:16.791Z,99.90
2018-12-25T20:44:12.191Z,99.90
2018-12-25T20:47:26.955Z,99.90
2018-12-25T20:50:40.407Z,99.90
2018-12-25T20:54:12.857Z,99.90
2018-12-25T20:57:25.474Z,99.90
2018-12-25T21:00:11.208Z,99.90
2018-12-25T21:03:34.538Z,99.90
2018-12-25T21:06:51.251Z,99.90
2018-12-25T21:09:58.563Z,99.90
2018-12-25T21:13:04.493Z,99.90
2018-12-25T21:16:05.651Z,99.90
2018-12-25T21:19:41.904Z,99.90
2018-12-25T21:22:43.283Z,99.90
2018-12-25T21:25:51.012Z,99.90
2018-12-25T21:28:19.285Z,99.90
2018-12-25T21:30:49.521Z,99.90
2018-12-25T21:33:19.784Z,99.90
2018-12-25T21:35:50.026Z,99.90
2018-12-25T21:38:20.360Z,99.90
2018-12-25T21:40:50.582Z,99.90
2018-12-25T21:43:20.909Z,99.90
2018-12-25T21:45:51.153Z,99.90
2018-12-25T21:48:21.366Z,99.90
2018-12-25T21:50:52.034Z,99.90
2018-12-25T21:53:23.725Z,99.90
2018-12-25T21:55:54.385Z,99.90
2018-12-25T21:58:24.531Z,99.90
2018-12-25T22:00:54.956Z,99.90
2018-12-25T22:03:26.433Z,99.90
2018-12-25T22:05:56.812Z,99.90
2018-12-25T22:08:28.216Z,99.90
2018-12-25T22:10:58.549Z,99.90
2018-12-25T22:13:28.841Z,99.90
2018-12-25T22:15:59.257Z,99.90
2018-12-25T22:18:29.583Z,99.90
2018-12-25T22:20:59.737Z,99.90
2018-12-25T22:23:29.951Z,99.90
2018-12-25T22:26:00.329Z,99.90
2018-12-25T22:28:30.538Z,99.90
2018-12-25T22:31:00.850Z,99.90
2018-12-25T22:33:31.159Z,99.90
2018-12-25T22:36:01.415Z,99.90
2018-12-25T22:38:31.711Z,99.90
2018-12-25T22:41:02.011Z,99.90
2018-12-25T22:43:32.374Z,99.90
2018-12-25T22:46:02.690Z,99.90
2018-12-25T22:48:32.845Z,99.90
2018-12-25T22:51:03.166Z,99.90
2018-12-25T22:53:33.462Z,99.90
2018-12-25T22:56:03.670Z,99.90
2018-12-25T22:58:34.048Z,99.90
2018-12-25T23:01:04.499Z,99.90
2018-12-25T23:03:34.857Z,99.90
2018-12-25T23:06:05.037Z,99.90
2018-12-25T23:08:35.404Z,99.90
2018-12-25T23:11:05.610Z,99.90
2018-12-25T23:13:35.749Z,99.90
2018-12-25T23:16:07.943Z,99.90
2018-12-25T23:18:37.883Z,99.90
2018-12-25T23:21:08.155Z,99.90
2018-12-25T23:23:38.310Z,99.90
2018-12-25T23:26:08.527Z,99.90
2018-12-25T23:28:38.794Z,99.90
2018-12-25T23:31:09.100Z,99.90
2018-12-25T23:33:39.493Z,99.90
2018-12-25T23:36:09.721Z,99.90
2018-12-25T23:38:39.973Z,99.90
2018-12-25T23:41:10.230Z,99.90
2018-12-25T23:43:40.510Z,99.90
2018-12-25T23:46:10.762Z,99.90
2018-12-25T23:48:40.943Z,99.90
2018-12-25T23:51:11.221Z,99.90
2018-12-25T23:53:41.446Z,99.90
2018-12-25T23:56:11.726Z,99.90
2018-12-25T23:58:41.873Z,99.90
